• Join FlightAware (Why Join?)
  • Login
  • US Flag GB Flag 
11:37 EDT


 

Airport Tracker/Info


-or-


 

Live Flight TrackerFlight Track Log ✈ UPS37 ✈ 05-May-2013 ✈ YSSY / SYD - ZGSZ / SZX

Flight Track Log - Related Links

Times and Time Zones

All times are in EDT time to prevent confusion due to time zone crossing. See the UPS37 flight status page for this flight to view local times or setup timezone preferences in your user account.

Time Position Orientation Groundspeed Altitude Reporting Facility
EDT Latitude Longitude Course Direction KTS MPH feet Rate Location/Type
05:17 -33.9330 151.1690 25° Northeast 2 2  Level FlightAware
05:19 -33.9340 151.1690 180° South 2 2 60 Level FlightAware
05:22 -33.6788 150.9336 322° Northwest  Level Estimated
05:23 -33.5847 150.8472 323° Northwest  Level Estimated
05:24 -33.4906 150.7611 323° Northwest  Level Estimated
05:25 -33.3964 150.6752 323° Northwest  Level Estimated
05:26 -33.3021 150.5894 323° Northwest  Level Estimated
05:27 -33.2078 150.5039 323° Northwest  Level Estimated
05:28 -33.1135 150.4185 323° Northwest  Level Estimated
05:29 -33.0191 150.3333 323° Northwest  Level Estimated
05:30 -32.9246 150.2483 323° Northwest  Level Estimated
05:31 -32.8301 150.1634 323° Northwest  Level Estimated
05:32 -32.7355 150.0788 323° Northwest  Level Estimated
05:33 -32.6408 149.9943 323° Northwest  Level Estimated
05:34 -32.5461 149.9100 323° Northwest  Level Estimated
05:35 -32.4514 149.8259 323° Northwest  Level Estimated
05:36 -32.3565 149.7419 323° Northwest  Level Estimated
05:36 -33.9661 151.1801 323° Northwest 151 174 1,400  Level Aus ATC (RADAR)
05:37 -33.9897 151.1806 179° South 147 169 2,900 2,100 Climbing Aus ATC (RADAR)
05:37 -34.0116 151.1777 179° South 159 183 3,700 720 Climbing Aus ATC (RADAR)
05:37 -34.0150 151.1770 179° South 186 214 3,400 1,380 Descending FlightAware
05:38 -34.0453 151.1796 179° South 211 243 4,500 2,100 Climbing Aus ATC (RADAR)
05:38 -34.0600 151.1850 179° South 238 274 4,800 2,040 Climbing FlightAware
05:38 -34.0770 151.1910 164° South 249 287 5,600 3,060 Climbing FlightAware
05:39 -34.1120 151.2020 165° South 267 307 7,100 3,180 Climbing FlightAware
05:39 -34.1300 151.2060 165° South 257 296 8,000 5,280 Climbing FlightAware
05:39 -34.1377 151.2073 165° South 267 307 8,700 3,360 Climbing Aus ATC (RADAR)
05:39 -34.1590 151.1930 200° South 261 300 9,400 2,400 Climbing FlightAware
05:40 -34.1680 151.1740 240° Southwest 269 310 10,200 3,120 Climbing FlightAware
05:40 -34.1710 151.1590 256° West 275 316 10,700 3,600 Climbing FlightAware
05:40 -34.1572 151.1141 256° West 273 314 12,500 3,000 Climbing Aus ATC (RADAR)
05:40 -34.1570 151.1150 256° West 300 345 12,200 2,160 Descending FlightAware
05:41 -34.1275 151.0891 256° West 301 346 13,400 1,860 Climbing Aus ATC (RADAR)
05:41 -34.1010 151.0700 256° West 342 394 13,600 1,260 Climbing FlightAware
05:42 -34.0540 151.0310 325° Northwest 373 429 14,600 2,040 Climbing FlightAware
05:42 -34.0160 151.0000 325° Northwest 377 434 15,600 1,560 Climbing Aus ATC (RADAR)
05:42 -33.9760 150.9710 325° Northwest 419 482 15,900 1,020 Climbing FlightAware
05:43 -33.9010 150.9320 337° Northwest 454 522 16,800 1,680 Climbing FlightAware
05:44 -33.8220 150.8930 338° Northwest 469 540 18,200 2,460 Climbing FlightAware
05:44 -33.7514 150.8554 338° Northwest 457 526 19,800 2,220 Climbing Aus ATC (RADAR)
05:45 -33.7310 150.8450 338° Northwest 472 543 19,900 2,160 Climbing FlightAware
05:45 -33.6788 150.8182 338° Northwest 477 549 21,100 2,220 Climbing Aus ATC (RADAR)
05:45 -33.6480 150.8030 338° Northwest 477 549 21,400 2,100 Climbing FlightAware
05:46 -33.5958 150.7766 338° Northwest 483 556 22,500 1,800 Climbing Aus ATC (RADAR)
05:46 -33.5610 150.7660 338° Northwest 495 570 22,600 1,680 Climbing FlightAware
05:46 -33.5170 150.7526 338° Northwest 499 574 23,500 2,340 Climbing Aus ATC (RADAR)
05:47 -33.4368 150.7284 346° North 508 585 24,700 2,400 Climbing Aus ATC (RADAR)
05:47 -33.3681 150.7079 346° North 508 585 26,100 2,280 Climbing Aus ATC (RADAR)
05:48 -33.2891 150.6842 346° North 504 580 27,200 2,220 Climbing Aus ATC (RADAR)
05:49 -33.1643 150.6469 346° North 503 579 29,500 2,520 Climbing Aus ATC (RADAR)
05:49 -33.1203 150.6342 346° North 494 568 30,400 2,520 Climbing Aus ATC (RADAR)
05:50 -33.0659 150.6177 346° North 487 560 31,400 1,740 Climbing Aus ATC (RADAR)
05:50 -33.0510 150.6140 346° North 477 549 31,500 3,120 Climbing FlightAware
05:50 -32.9919 150.5963 346° North 471 542 33,200 2,400 Climbing Aus ATC (RADAR)
05:51 -32.8983 150.5687 346° North 455 524 34,200 1,680 Climbing Aus ATC (RADAR)
05:51 -32.8269 150.5481 346° North 444 511 35,500 1,560 Climbing Aus ATC (RADAR)
05:52 -32.7720 150.5320 346° North 444 511 35,900 1,320 Climbing FlightAware
05:52 -32.7570 150.5271 346° North 435 501 36,300 600 Climbing Aus ATC (RADAR)
05:52 -32.6966 150.5097 346° North 444 511 36,300  Level Aus ATC (RADAR)
05:53 -32.6286 150.4891 346° North 434 499 36,300  Level Aus ATC (RADAR)
05:54 -32.5114 150.4554 346° North 435 501 36,300  Level Aus ATC (RADAR)
05:54 -32.4625 150.4412 346° North 435 501 36,300 -660 Level Aus ATC (RADAR)
05:55 -32.4670 150.4430 346° North 429 494 36,000  Descending FlightAware
05:55 -32.3931 150.4214 346° North 440 506 36,300 240 Climbing Aus ATC (RADAR)
05:56 -32.3137 150.3981 346° North 442 509 36,300  Level Aus ATC (RADAR)
05:56 -32.2438 150.3778 346° North 444 511 36,300  Level Aus ATC (RADAR)
05:57 -32.1742 150.3573 346° North 444 511 36,300 -480 Level Aus ATC (RADAR)
05:57 -32.1700 150.3570 346° North 446 513 36,000 -240 Descending FlightAware
05:57 -32.1138 150.3396 346° North 447 514 36,200 180 Climbing Aus ATC (RADAR)
05:58 -32.0434 150.3198 347° North 448 516 36,200 -300 Level Aus ATC (RADAR)
05:58 -32.0300 150.3160 347° North 445 512 36,000  Descending FlightAware
05:59 -31.9333 150.2883 347° North 441 507 36,200  Climbing Aus ATC (RADAR)
05:59 -31.9360 150.2890 347° North 446 513 36,000  Descending FlightAware
05:59 -31.8930 150.2760 347° North 447 514 36,200  Climbing Aus ATC (RADAR)
06:00 -31.8570 150.2660 347° North 447 514 36,000  Descending FlightAware
06:00 -31.8428 150.2621 347° North 442 509 36,200 300 Climbing Aus ATC (RADAR)
06:00 -31.7724 150.2416 347° North 447 514 36,200 -240 Level Aus ATC (RADAR)
06:01 -31.7440 150.2340 347° North 447 514 36,000  Descending FlightAware
06:01 -31.6917 150.2183 347° North 449 517 36,200  Climbing Aus ATC (RADAR)
06:01 -31.6550 150.2080 347° North 446 513 36,000 -180 Descending FlightAware
06:02 -31.5630 150.1820 346° North 447 514 36,000 180 Level FlightAware
06:03 -31.4901 150.1607 346° North 448 516 36,300  Climbing Aus ATC (RADAR)
06:03 -31.4820 150.1590 346° North 448 516 36,000  Descending FlightAware
06:03 -31.4193 150.1406 346° North 450 518 36,300  Climbing Aus ATC (RADAR)
06:03 -31.3920 150.1330 346° North 447 514 36,000 -360 Descending FlightAware
06:04 -31.3110 150.1100 346° North 447 514 36,000 180 Level FlightAware
06:05 -31.2492 150.0922 346° North 443 510 36,200  Climbing Aus ATC (RADAR)
06:05 -31.2340 150.0880 346° North 447 514 36,000 -240 Descending FlightAware
06:05 -31.1500 150.0640 346° North 445 512 36,000  Level FlightAware
06:06 -31.0600 150.0390 347° North 446 513 36,000 120 Level FlightAware
06:07 -30.9773 150.0151 347° North 446 513 36,200  Climbing Aus ATC (RADAR)
06:07 -30.9800 150.0160 347° North 445 512 36,000  Descending FlightAware
06:07 -30.9071 149.9952 347° North 446 513 36,200  Climbing Aus ATC (RADAR)
06:08 -30.8900 149.9910 347° North 445 512 36,000  Descending FlightAware
06:08 -30.8467 149.9783 347° North 447 514 36,200 180 Climbing Aus ATC (RADAR)
06:08 -30.7770 149.9583 346° North 445 512 36,200 -360 Level Aus ATC (RADAR)
06:09 -30.7800 149.9590 346° North 444 511 36,000 -300 Descending FlightAware
06:09 -30.7120 149.9390 346° North 444 511 36,000 120 Level FlightAware
06:10 -30.6169 149.9144 346° North 443 510 36,200  Climbing Aus ATC (RADAR)
06:10 -30.6440 149.9200 346° North 444 511 36,000 120 Descending FlightAware
06:10 -30.5483 149.8953 346° North 436 502 36,300  Climbing Aus ATC (RADAR)
06:11 -30.5770 149.9000 346° North 444 511 36,000  Descending FlightAware
06:11 -30.4681 149.8726 346° North 440 506 36,300  Climbing Aus ATC (RADAR)
06:11 -30.5090 149.8810 346° North 444 511 36,000 -180 Descending FlightAware
06:12 -30.3988 149.8532 346° North 440 506 36,200  Climbing Aus ATC (RADAR)
06:12 -30.4240 149.8560 346° North 444 511 36,000 -240 Descending FlightAware
06:13 -30.3560 149.8360 346° North 444 511 36,000 120 Level FlightAware
06:13 -30.2061 149.7669 346° North 416 479 36,200  Climbing Aus ATC (RADAR)
06:13 -30.2890 149.8170 346° North 444 511 36,000 -300 Descending FlightAware
06:14 -30.2210 149.7970 346° North 444 511 36,000 240 Level FlightAware
06:14 -30.1265 149.7235 346° North 417 480 36,200 300 Climbing Aus ATC (RADAR)
06:15 -30.0737 149.6944 346° North 417 480 36,200 -360 Level Aus ATC (RADAR)
06:15 -30.1530 149.7780 346° North 444 511 36,000  Descending FlightAware
06:15 -30.0108 149.6608 346° North 423 487 36,200  Climbing Aus ATC (RADAR)
06:16 -30.0680 149.7530 346° North 444 511 36,000  Descending FlightAware
06:16 -29.9507 149.6265 346° North 416 479 36,200  Climbing Aus ATC (RADAR)
06:16 -30.0010 149.7340 346° North 444 511 36,000  Descending FlightAware
06:17 -29.8363 149.5633 346° North 417 480 36,200  Climbing Aus ATC (RADAR)
06:17 -29.9330 149.7140 346° North 444 511 36,000  Descending FlightAware
06:17 -29.7749 149.5296 346° North 416 479 36,200  Climbing Aus ATC (RADAR)
06:18 -29.8650 149.6950 346° North 444 511 36,000 -420 Descending FlightAware
06:18 -29.7194 149.5020 346° North 422 486 36,000 300 Level Aus ATC (RADAR)
06:19 -29.6607 149.4660 332° Northwest 417 480 36,300  Climbing Aus ATC (RADAR)
06:19 -29.5609 149.4153 336° Northwest 421 484 36,000 -240 Descending Aus ATC (RADAR)
06:20 -29.5168 149.3914 335° Northwest 422 486 36,000  Level Aus ATC (RADAR)
06:20 -29.4548 149.3580 335° Northwest 422 486 36,000  Level Aus ATC (RADAR)
06:21 -29.3844 149.3193 334° Northwest 423 487 36,000  Level Aus ATC (RADAR)
06:22 -29.3237 149.2840 333° Northwest 421 484 36,000  Level Aus ATC (RADAR)
06:22 -29.2626 149.2498 334° Northwest 421 484 36,000  Level Aus ATC (RADAR)
06:23 -29.2093 149.2214 335° Northwest 422 486 36,000  Level Aus ATC (RADAR)
06:23 -29.1480 149.1873 334° Northwest 421 484 36,000  Level Aus ATC (RADAR)
06:24 -29.0687 149.1438 334° Northwest 423 487 36,000  Level Aus ATC (RADAR)
06:25 -29.0064 149.1106 335° Northwest 424 488 36,000  Level Aus ATC (RADAR)
06:25 -28.9441 149.0773 335° Northwest 424 488 36,000 120 Level Aus ATC (RADAR)
06:26 -28.8562 149.0292 334° Northwest 420 483 36,200  Climbing Aus ATC (RADAR)
06:26 -28.8196 149.0108 336° Northwest 425 489 36,000 -240 Descending Aus ATC (RADAR)
06:27 -28.7571 148.9775 335° Northwest 425 489 36,000  Level Aus ATC (RADAR)
06:28 -28.6767 148.9344 335° Northwest 426 490 36,000  Level Aus ATC (RADAR)
06:28 -28.6140 148.9009 335° Northwest 427 491 36,000  Level Aus ATC (RADAR)
06:29 -28.5511 148.8673 335° Northwest 428 493 36,000 120 Level Aus ATC (RADAR)
06:30 -28.4354 148.8037 334° Northwest 427 491 36,200  Climbing Aus ATC (RADAR)
06:30 -28.3982 148.7840 335° Northwest 430 495 36,000 -120 Descending Aus ATC (RADAR)
06:31 -28.3349 148.7500 335° Northwest 431 496 36,100 60 Climbing Aus ATC (RADAR)
06:32 -28.2534 148.7070 335° Northwest 432 497 36,100 60 Level Aus ATC (RADAR)
06:32 -28.1912 148.6737 335° Northwest 429 494 36,200 -120 Climbing Aus ATC (RADAR)
06:33 -28.1341 148.6460 337° Northwest 434 499 36,000 -240 Descending Aus ATC (RADAR)
06:33 -28.0703 148.6120 335° Northwest 436 502 36,000 180 Level Aus ATC (RADAR)
06:34 -28.0177 148.5819 333° Northwest 433 498 36,200 120 Climbing Aus ATC (RADAR)
06:35 -27.9122 148.5166 331° Northwest 429 494 36,200  Level Aus ATC (RADAR)
06:35 -27.8706 148.4899 330° Northwest 420 483 36,200  Level Aus ATC (RADAR)
06:36 -27.8200 148.4581 331° Northwest 417 480 36,200  Level Aus ATC (RADAR)
06:37 -27.7419 148.4109 332° Northwest 420 483 36,200  Level Aus ATC (RADAR)
06:37 -27.6792 148.3740 332° Northwest 426 490 36,200  Level Aus ATC (RADAR)
06:38 -27.6167 148.3367 332° Northwest 431 496 36,200  Level Aus ATC (RADAR)
06:38 -27.5636 148.3052 332° Northwest 430 495 36,200  Level Aus ATC (RADAR)
06:39 -27.5016 148.2683 332° Northwest 430 495 36,200  Level Aus ATC (RADAR)
06:40 -27.4130 148.2159 332° Northwest 431 496 36,200  Level Aus ATC (RADAR)
06:40 -27.3778 148.1951 332° Northwest 429 494 36,200  Level Aus ATC (RADAR)
06:40 -27.3278 148.1690 335° Northwest 438 504 36,200  Level Aus ATC (RADAR)
06:41 -27.2678 148.1337 332° Northwest 423 487 36,200  Level Aus ATC (RADAR)
06:42 -27.1979 148.0925 332° Northwest 424 488 36,200  Level Aus ATC (RADAR)
06:42 -27.1361 148.0567 333° Northwest 426 490 36,200  Level Aus ATC (RADAR)
06:43 -27.0748 148.0209 333° Northwest 426 490 36,200  Level Aus ATC (RADAR)
06:43 -27.0225 147.9898 332° Northwest 425 489 36,200  Level Aus ATC (RADAR)
06:44 -26.9613 147.9543 333° Northwest 425 489 36,200  Level Aus ATC (RADAR)
06:45 -26.8827 147.9080 332° Northwest 425 489 36,200  Level Aus ATC (RADAR)
06:45 -26.8215 147.8723 333° Northwest 424 488 36,200  Level Aus ATC (RADAR)
06:46 -26.7599 147.8366 333° Northwest 426 490 36,200  Level Aus ATC (RADAR)
06:46 -26.6992 147.8011 332° Northwest 423 487 36,200  Level Aus ATC (RADAR)
06:47 -26.6472 147.7702 332° Northwest 423 487 36,200  Level Aus ATC (RADAR)
06:47 -26.5857 147.7349 333° Northwest 425 489 36,200  Level Aus ATC (RADAR)
06:48 -26.5245 147.6991 332° Northwest 425 489 36,200  Level Aus ATC (RADAR)
06:48 -26.4722 147.6685 332° Northwest 424 488 36,200  Level Aus ATC (RADAR)
06:49 -26.4106 147.6334 333° Northwest 424 488 36,200  Level Aus ATC (RADAR)
06:50 -26.3231 147.5827 333° Northwest 425 489 36,200  Level Aus ATC (RADAR)
06:50 -26.2793 147.5575 333° Northwest 425 489 36,200  Level Aus ATC (RADAR)
06:51 -26.2265 147.5268 332° Northwest 424 488 36,200 -240 Level Aus ATC (RADAR)
06:51 -26.2040 147.5140 332° Northwest 425 489 36,000  Descending FlightAware
06:52 -26.1478 147.4815 333° Northwest 424 488 36,200 300 Climbing Aus ATC (RADAR)
06:52 -26.1129 147.4612 332° Northwest 424 488 36,200 -540 Level Aus ATC (RADAR)
06:52 -26.1450 147.4790 332° Northwest 425 489 36,000  Descending FlightAware
06:52 -26.0536 147.4270 332° Northwest 414 476 36,200  Climbing Aus ATC (RADAR)
06:53 -26.0540 147.4270 332° Northwest 424 488 36,000  Descending FlightAware
06:53 -25.9841 147.3875 332° Northwest 418 481 36,200  Climbing Aus ATC (RADAR)
06:53 -25.9810 147.3850 332° Northwest 424 488 36,000  Descending FlightAware
06:54 -25.9199 147.3501 332° Northwest 426 490 36,200  Climbing Aus ATC (RADAR)
06:54 -25.9230 147.3500 332° Northwest 424 488 36,000 -240 Descending FlightAware
06:55 -25.8640 147.3150 332° Northwest 424 488 36,000 60 Level FlightAware
06:55 -25.7822 147.2716 332° Northwest 422 486 36,100  Climbing Aus ATC (RADAR)
06:55 -25.8050 147.2800 333° Northwest 424 488 36,000  Descending FlightAware
06:55 -25.7374 147.2460 333° Northwest 426 490 36,100 120 Climbing Aus ATC (RADAR)
06:56 -25.6744 147.2102 333° Northwest 430 495 36,100 -180 Level Aus ATC (RADAR)
06:56 -25.7460 147.2450 333° Northwest 424 488 36,000  Descending FlightAware
06:57 -25.6026 147.1694 333° Northwest 433 498 36,100  Climbing Aus ATC (RADAR)
06:57 -25.6720 147.2020 333° Northwest 424 488 36,000 -120 Descending FlightAware
06:58 -25.6130 147.1670 332° Northwest 424 488 36,000  Level FlightAware
06:58 -25.4770 147.0980 335° Northwest 425 489 36,000 60 Level FlightAware
06:59 -25.3836 147.0449 335° Northwest 425 489 36,100  Climbing Aus ATC (RADAR)
06:59 -25.4050 147.0550 335° Northwest 425 489 36,000  Descending FlightAware
06:59 -25.3230 147.0106 335° Northwest 423 487 36,100  Climbing Aus ATC (RADAR)
07:00 -25.3460 147.0200 335° Northwest 425 489 36,000  Descending FlightAware
07:00 -25.2353 146.9607 335° Northwest 424 488 36,100  Climbing Aus ATC (RADAR)
07:00 -25.2870 146.9860 333° Northwest 425 489 36,000  Descending FlightAware
07:00 -25.2093 146.9461 333° Northwest 424 488 36,100 120 Climbing Aus ATC (RADAR)
07:01 -25.1568 146.9164 333° Northwest 424 488 36,100 -180 Level Aus ATC (RADAR)
07:01 -25.2280 146.9510 333° Northwest 425 489 36,000  Descending FlightAware
07:02 -25.0863 146.8766 333° Northwest 425 489 36,100  Climbing Aus ATC (RADAR)
07:02 -25.1540 146.9070 333° Northwest 425 489 36,000 -120 Descending FlightAware
07:03 -25.0950 146.8730 332° Northwest 425 489 36,000  Level FlightAware
07:03 -25.0360 146.8380 332° Northwest 425 489 36,000 60 Level FlightAware
07:04 -24.8697 146.7542 332° Northwest 427 491 36,100  Climbing Aus ATC (RADAR)
07:04 -24.9770 146.8040 332° Northwest 425 489 36,000  Descending FlightAware
07:04 -24.8081 146.7192 332° Northwest 427 491 36,100  Climbing Aus ATC (RADAR)
07:05 -24.9180 146.7690 332° Northwest 425 489 36,000 60 Descending FlightAware
07:05 -24.7027 146.6601 332° Northwest 424 488 36,200  Climbing Aus ATC (RADAR)
07:06 -24.7090 146.6640 332° Northwest 426 490 36,000 -240 Descending FlightAware
07:06 -24.6160 146.6120 333° Northwest 424 488 36,000  Level FlightAware
07:07 -24.5620 146.5810 332° Northwest 425 489 36,000 60 Level FlightAware
07:08 -24.4654 146.5272 332° Northwest 426 490 36,100  Climbing Aus ATC (RADAR)
07:08 -24.4750 146.5330 332° Northwest 425 489 36,000  Descending FlightAware
07:08 -24.4041 146.4931 332° Northwest 424 488 36,100  Climbing Aus ATC (RADAR)
07:09 -24.3600 146.4690 332° Northwest 424 488 36,000  Descending FlightAware
07:09 -24.2900 146.4294 332° Northwest 425 489 36,100  Climbing Aus ATC (RADAR)
07:09 -24.2990 146.4340 332° Northwest 424 488 36,000 120 Descending FlightAware
07:10 -24.2110 146.3855 332° Northwest 425 489 36,200  Climbing Aus ATC (RADAR)
07:10 -24.2140 146.3870 332° Northwest 424 488 36,000  Descending FlightAware
07:10 -24.1583 146.3566 332° Northwest 425 489 36,200  Climbing Aus ATC (RADAR)
07:11 -24.1570 146.3560 332° Northwest 424 488 36,000 -180 Descending FlightAware
07:11 -24.0976 146.3226 332° Northwest 422 486 36,100  Climbing Aus ATC (RADAR)
07:11 -24.0860 146.3160 332° Northwest 424 488 36,000  Descending FlightAware
07:12 -24.0359 146.2887 332° Northwest 424 488 36,100  Climbing Aus ATC (RADAR)
07:12 -24.0260 146.2830 333° Northwest 424 488 36,000  Descending FlightAware
07:12 -23.9834 146.2596 333° Northwest 424 488 36,100 120 Climbing Aus ATC (RADAR)
07:13 -23.9321 146.2322 333° Northwest 416 479 36,100 -180 Level Aus ATC (RADAR)
07:13 -23.9670 146.2500 333° Northwest 424 488 36,000  Descending FlightAware
07:13 -23.8725 146.2011 333° Northwest 411 473 36,100  Climbing Aus ATC (RADAR)
07:14 -23.8930 146.2090 333° Northwest 424 488 36,000  Descending FlightAware
07:14 -23.8035 146.1637 333° Northwest 413 475 36,100  Climbing Aus ATC (RADAR)
07:14 -23.8330 146.1750 333° Northwest 424 488 36,000 -120 Descending FlightAware
07:15 -23.7740 146.1420 333° Northwest 424 488 36,000 60 Level FlightAware
07:15 -23.6479 146.0786 333° Northwest 315 362 36,100  Climbing Aus ATC (RADAR)
07:16 -23.7140 146.1090 333° Northwest 424 488 36,000 -120 Descending FlightAware
07:16 -23.6550 146.0760 333° Northwest 424 488 36,000  Level FlightAware
07:17 -23.5810 146.0350 333° Northwest 424 488 36,000 60 Level FlightAware
07:18 -23.4072 145.9441 333° Northwest 423 487 36,100  Climbing Aus ATC (RADAR)
07:18 -23.5210 146.0020 333° Northwest 424 488 36,000  Descending FlightAware
07:18 -23.3455 145.9095 333° Northwest 427 491 36,100  Climbing Aus ATC (RADAR)
07:18 -23.4620 145.9690 333° Northwest 424 488 36,000  Descending FlightAware
07:19 -23.2933 145.8812 333° Northwest 422 486 36,100  Climbing Aus ATC (RADAR)
07:19 -23.4020 145.9360 333° Northwest 424 488 36,000 -120 Descending FlightAware
07:20 -23.3430 145.9030 333° Northwest 424 488 36,000  Level FlightAware
07:21 -23.2690 145.8620 333° Northwest 424 488 36,000 60 Level FlightAware
07:21 -23.0471 145.7470 333° Northwest 427 491 36,100 60 Climbing Aus ATC (RADAR)
07:22 -22.9858 145.7135 333° Northwest 424 488 36,100  Level Aus ATC (RADAR)
07:22 -22.9151 145.6751 333° Northwest 426 490 36,100  Level Aus ATC (RADAR)
07:23 -22.8629 145.6461 333° Northwest 423 487 36,100  Level Aus ATC (RADAR)
07:23 -22.8000 145.6122 334° Northwest 429 494 36,100  Level Aus ATC (RADAR)
07:24 -22.7297 145.5739 333° Northwest 426 490 36,100  Level Aus ATC (RADAR)
07:25 -22.6683 145.5409 334° Northwest 425 489 36,100  Level Aus ATC (RADAR)
07:26 -22.5456 145.4746 333° Northwest 424 488 36,100  Level Aus ATC (RADAR)
07:26 -22.5014 145.4508 334° Northwest 425 489 36,100  Level Aus ATC (RADAR)
07:27 -22.4661 145.4316 333° Northwest 425 489 36,100  Level Aus ATC (RADAR)
07:27 -22.4051 145.3990 334° Northwest 421 484 36,100  Level Aus ATC (RADAR)
07:28 -22.3372 145.3620 333° Northwest 413 475 36,100  Level Aus ATC (RADAR)
07:28 -22.2911 145.3375 334° Northwest 423 487 36,100  Level Aus ATC (RADAR)
07:29 -22.2385 145.3091 333° Northwest 424 488 36,100  Level Aus ATC (RADAR)
07:29 -22.1684 145.2715 334° Northwest 423 487 36,100  Level Aus ATC (RADAR)
07:30 -22.1068 145.2385 334° Northwest 424 488 36,100  Level Aus ATC (RADAR)
07:31 -22.0198 145.1920 334° Northwest 420 483 36,100  Level Aus ATC (RADAR)
07:31 -21.9674 145.1634 333° Northwest 422 486 36,100  Level Aus ATC (RADAR)
07:32 -21.9154 145.1357 334° Northwest 419 482 36,100  Level Aus ATC (RADAR)
07:32 -21.8546 145.1033 334° Northwest 419 482 36,100  Level Aus ATC (RADAR)
07:33 -21.7847 145.0660 334° Northwest 421 484 36,100  Level Aus ATC (RADAR)
07:34 -21.7239 145.0338 334° Northwest 419 482 36,100  Level Aus ATC (RADAR)
07:34 -21.6544 144.9971 334° Northwest 420 483 36,100  Level Aus ATC (RADAR)
07:35 -21.6025 144.9689 333° Northwest 420 483 36,100  Level Aus ATC (RADAR)
07:36 -21.5159 144.9226 334° Northwest 421 484 36,100  Level Aus ATC (RADAR)
07:36 -21.4731 144.9002 334° Northwest 415 478 36,100  Level Aus ATC (RADAR)
07:36 -21.4382 144.8814 333° Northwest 419 482 36,100  Level Aus ATC (RADAR)
07:37 -21.3774 144.8492 334° Northwest 420 483 36,100  Level Aus ATC (RADAR)
07:38 -21.3084 144.8131 334° Northwest 416 479 36,100  Level Aus ATC (RADAR)
07:38 -21.2651 144.7902 334° Northwest 417 480 36,100  Level Aus ATC (RADAR)
07:39 -21.2045 144.7577 333° Northwest 419 482 36,100  Level Aus ATC (RADAR)
07:39 -21.1353 144.7214 334° Northwest 418 481 36,100  Level Aus ATC (RADAR)
07:40 -21.1011 144.7029 333° Northwest 417 480 36,100  Level Aus ATC (RADAR)
07:40 -21.0318 144.6664 334° Northwest 418 481 36,100  Level Aus ATC (RADAR)
07:41 -20.9538 144.6253 334° Northwest 418 481 36,100  Level Aus ATC (RADAR)
07:41 -20.9192 144.6075 334° Northwest 416 479 36,100  Level Aus ATC (RADAR)
07:42 -20.8579 144.5747 333° Northwest 421 484 36,100  Level Aus ATC (RADAR)
07:43 -20.7890 144.5385 334° Northwest 417 480 36,100  Level Aus ATC (RADAR)
07:43 -20.7284 144.5065 334° Northwest 418 481 36,100  Level Aus ATC (RADAR)
07:44 -20.6761 144.4788 334° Northwest 421 484 36,100  Level Aus ATC (RADAR)
07:44 -20.6064 144.4428 334° Northwest 419 482 36,100  Level Aus ATC (RADAR)
07:45 -20.5454 144.4107 334° Northwest 421 484 36,100  Level Aus ATC (RADAR)
07:46 -20.4588 144.3653 334° Northwest 421 484 36,100  Level Aus ATC (RADAR)
07:46 -20.4149 144.3426 334° Northwest 422 486 36,100  Level Aus ATC (RADAR)
07:46 -20.3799 144.3238 333° Northwest 422 486 36,100  Level Aus ATC (RADAR)
07:47 -20.3189 144.2923 334° Northwest 420 483 36,100  Level Aus ATC (RADAR)
07:48 -20.2497 144.2561 334° Northwest 417 480 36,100  Level Aus ATC (RADAR)
07:48 -20.2057 144.2330 334° Northwest 422 486 36,100  Level Aus ATC (RADAR)
07:49 -20.1537 144.2061 334° Northwest 419 482 36,100  Level Aus ATC (RADAR)
07:49 -20.0836 144.1697 334° Northwest 420 483 36,100  Level Aus ATC (RADAR)
07:50 -20.0402 144.1471 334° Northwest 419 482 36,100  Level Aus ATC (RADAR)
07:50 -19.9784 144.1150 334° Northwest 423 487 36,100  Level Aus ATC (RADAR)
07:51 -19.9085 144.0788 334° Northwest 422 486 36,100 -180 Level Aus ATC (RADAR)
07:51 -19.9080 144.0780 334° Northwest 412 474 36,000  Descending FlightAware
07:52 -19.8477 144.0473 334° Northwest 416 479 36,100  Climbing Aus ATC (RADAR)
07:52 -19.8510 144.0470 333° Northwest 412 474 36,000  Descending FlightAware
07:52 -19.7951 144.0201 333° Northwest 418 481 36,100  Climbing Aus ATC (RADAR)
07:52 -19.7930 144.0160 333° Northwest 412 474 36,000  Descending FlightAware
07:53 -19.7259 143.9842 333° Northwest 415 478 36,100  Climbing Aus ATC (RADAR)
07:53 -19.7350 143.9850 333° Northwest 412 474 36,000 -120 Descending FlightAware
07:54 -19.6770 143.9530 333° Northwest 412 474 36,000 120 Level FlightAware
07:54 -19.6045 143.9211 333° Northwest 417 480 36,100 120 Climbing Aus ATC (RADAR)
07:54 -19.5523 143.8946 333° Northwest 416 479 36,100 -180 Level Aus ATC (RADAR)
07:55 -19.5430 143.8900 333° Northwest 415 478 36,000  Descending FlightAware
07:55 -19.5008 143.8680 333° Northwest 413 475 36,100  Climbing Aus ATC (RADAR)
07:55 -19.4740 143.8550 333° Northwest 415 478 36,000  Descending FlightAware
07:56 -19.3701 143.8007 333° Northwest 417 480 36,100  Climbing Aus ATC (RADAR)
07:56 -19.3730 143.8010 333° Northwest 416 479 36,000  Descending FlightAware
07:57 -19.3084 143.7692 333° Northwest 420 483 36,100  Climbing Aus ATC (RADAR)
07:57 -19.3010 143.7660 333° Northwest 418 481 36,000  Descending FlightAware
07:57 -19.2475 143.7380 333° Northwest 418 481 36,100  Climbing Aus ATC (RADAR)
07:58 -19.2420 143.7350 333° Northwest 418 481 36,000  Descending FlightAware
07:58 -19.1864 143.7062 333° Northwest 420 483 36,100  Climbing Aus ATC (RADAR)
07:58 -19.1830 143.7050 333° Northwest 418 481 36,000  Descending FlightAware
07:59 -19.0622 143.6428 333° Northwest 424 488 36,100 60 Climbing Aus ATC (RADAR)
08:00 -18.9911 143.6063 334° Northwest 424 488 36,100  Level Aus ATC (RADAR)
08:00 -18.9372 143.5785 334° Northwest 429 494 36,100 60 Level Aus ATC (RADAR)
08:01 -18.8563 143.5375 334° Northwest 433 498 36,200  Climbing Aus ATC (RADAR)
08:01 -18.8032 143.5103 334° Northwest 427 491 36,100 -120 Descending Aus ATC (RADAR)
08:02 -18.7408 143.4788 334° Northwest 426 490 36,100  Level Aus ATC (RADAR)
08:03 -18.6785 143.4469 334° Northwest 426 490 36,100  Level Aus ATC (RADAR)
08:03 -18.6161 143.4151 334° Northwest 428 493 36,100 -180 Level Aus ATC (RADAR)
08:03 -18.6110 143.4120 334° Northwest 427 491 36,000  Descending FlightAware
08:04 -18.5538 143.3835 334° Northwest 428 493 36,100 60 Climbing Aus ATC (RADAR)
08:04 -18.4830 143.3471 334° Northwest 423 487 36,100  Level Aus ATC (RADAR)
08:05 -18.4202 143.3156 335° Northwest 427 491 36,100  Level Aus ATC (RADAR)
08:06 -18.3668 143.2883 334° Northwest 427 491 36,100  Level Aus ATC (RADAR)
08:06 -18.2953 143.2518 334° Northwest 428 493 36,100 -120 Level Aus ATC (RADAR)
08:07 -18.2580 143.2320 334° Northwest 428 493 36,000  Descending FlightAware
08:07 -18.1807 143.1890 334° Northwest 429 494 36,100  Climbing Aus ATC (RADAR)
08:07 -18.1980 143.2000 334° Northwest 428 493 36,000  Descending FlightAware
08:08 -18.1091 143.1499 334° Northwest 435 501 36,100  Climbing Aus ATC (RADAR)
08:08 -18.1380 143.1670 334° Northwest 428 493 36,000  Descending FlightAware
08:09 -18.0474 143.1163 334° Northwest 431 496 36,100 120 Climbing Aus ATC (RADAR)
08:09 -18.0330 143.1080 334° Northwest 433 498 36,100 120 Level FlightAware
08:09 -17.9844 143.0823 334° Northwest 435 501 36,200  Climbing Aus ATC (RADAR)
08:10 -18.0320 143.1080 334° Northwest 434 499 36,100 -120 Descending FlightAware
08:10 -17.9720 143.0740 332° Northwest 434 499 36,100  Level FlightAware
08:11 -17.9120 143.0410 332° Northwest 434 499 36,100  Level FlightAware
08:11 -17.7334 142.9464 332° Northwest 435 501 36,100  Level Aus ATC (RADAR)
08:12 -17.8370 142.9980 332° Northwest 434 499 36,100  Level FlightAware
08:12 -17.6710 142.9127 332° Northwest 433 498 36,100  Level Aus ATC (RADAR)
08:12 -17.7910 142.9730 332° Northwest 434 499 36,100  Level FlightAware
08:13 -17.6079 142.8790 332° Northwest 435 501 36,100  Level Aus ATC (RADAR)
08:13 -17.7310 142.9400 332° Northwest 434 499 36,100  Level FlightAware
08:13 -17.5365 142.8402 332° Northwest 434 499 36,100  Level Aus ATC (RADAR)
08:14 -17.6710 142.9060 332° Northwest 434 499 36,100  Level FlightAware
08:14 -17.6260 142.8810 332° Northwest 434 499 36,100  Level FlightAware
08:14 -17.4110 142.7727 332° Northwest 434 499 36,100  Level Aus ATC (RADAR)
08:15 -17.3665 142.7487 333° Northwest 433 498 36,100  Level Aus ATC (RADAR)
08:15 -17.5350 142.8300 333° Northwest 434 499 36,100  Level FlightAware
08:15 -17.3035 142.7151 333° Northwest 435 501 36,100  Level Aus ATC (RADAR)
08:16 -17.4750 142.7970 333° Northwest 434 499 36,100  Level FlightAware
08:16 -17.2322 142.6773 333° Northwest 432 497 36,100  Level Aus ATC (RADAR)
08:16 -17.4150 142.7630 333° Northwest 434 499 36,100  Level FlightAware
08:17 -17.1263 142.6198 333° Northwest 430 495 36,100  Level Aus ATC (RADAR)
08:17 -17.3390 142.7210 333° Northwest 434 499 36,100  Level FlightAware
08:18 -17.0640 142.5863 333° Northwest 431 496 36,100  Level Aus ATC (RADAR)
08:18 -17.2790 142.6880 333° Northwest 434 499 36,100  Level FlightAware
08:18 -17.0014 142.5529 333° Northwest 432 497 36,100  Level Aus ATC (RADAR)
08:19 -17.2190 142.6540 333° Northwest 434 499 36,100  Level FlightAware
08:19 -16.9390 142.5192 333° Northwest 432 497 36,100  Level Aus ATC (RADAR)
08:20 -16.8661 142.4809 333° Northwest 436 502 36,100  Level Aus ATC (RADAR)
08:20 -16.8117 142.4518 333° Northwest 438 504 36,100  Level Aus ATC (RADAR)
08:21 -16.7485 142.4182 333° Northwest 438 504 36,100  Level Aus ATC (RADAR)
08:22 -16.6495 142.3653 333° Northwest 436 502 36,100  Level Aus ATC (RADAR)
08:22 -16.5956 142.3362 333° Northwest 436 502 36,100  Level Aus ATC (RADAR)
08:23 -16.5318 142.3024 333° Northwest 438 504 36,100  Level Aus ATC (RADAR)
08:23 -16.4578 142.2639 333° Northwest 443 510 36,100  Level Aus ATC (RADAR)
08:24 -16.3958 142.2295 332° Northwest 440 506 36,100  Level Aus ATC (RADAR)
08:24 -16.3409 142.2009 333° Northwest 438 504 36,100  Level Aus ATC (RADAR)
08:25 -16.2677 142.1620 333° Northwest 440 506 36,100  Level Aus ATC (RADAR)
08:26 -16.2029 142.1282 333° Northwest 444 511 36,100  Level Aus ATC (RADAR)
08:26 -16.1127 142.0798 333° Northwest 441 507 36,100  Level Aus ATC (RADAR)
08:27 -16.0760 142.0608 334° Northwest 440 506 36,100  Level Aus ATC (RADAR)
08:27 -16.0126 142.0265 333° Northwest 441 507 36,100  Level Aus ATC (RADAR)
08:28 -15.9493 141.9930 333° Northwest 437 503 36,100  Level Aus ATC (RADAR)
08:29 -15.8839 141.9590 333° Northwest 441 507 36,100  Level Aus ATC (RADAR)
08:29 -15.8214 141.9245 332° Northwest 440 506 36,100 -120 Level Aus ATC (RADAR)
08:30 -15.7571 141.8914 334° Northwest 438 504 36,000 -120 Descending Aus ATC (RADAR)
08:30 -15.6923 141.8585 334° Northwest 440 506 36,000  Level Aus ATC (RADAR)
08:31 -15.6258 141.8265 335° Northwest 444 511 36,000  Level Aus ATC (RADAR)
08:31 -15.5890 141.8075 334° Northwest 445 512 36,000  Level Aus ATC (RADAR)
08:32 -15.4831 141.7580 336° Northwest 530 610 36,000  Level Aus ATC (RADAR)
08:33 -15.3513 141.6797 330° Northwest 455 524 36,000  Level Aus ATC (RADAR)
08:34 -15.2992 141.6478 329° Northwest 445 512 36,000  Level Aus ATC (RADAR)
08:34 -15.2365 141.6115 331° Northwest 442 509 36,000  Level Aus ATC (RADAR)
08:35 -15.1644 141.5700 331° Northwest 443 510 36,000  Level Aus ATC (RADAR)
08:36 -15.1091 141.5397 332° Northwest 443 510 36,000  Level Aus ATC (RADAR)
08:36 -15.0366 141.4981 331° Northwest 445 512 36,000  Level Aus ATC (RADAR)
08:37 -14.9840 141.4666 330° Northwest 441 507 36,000  Level Aus ATC (RADAR)
08:37 -14.9397 141.4409 331° Northwest 440 506 36,000 -60 Level Aus ATC (RADAR)
08:42 -14.4418 141.1573 322° Northwest 36,000 -60 Level Aus ATC (Calculated)
08:44 -14.2391 141.0423 331° Northwest  Level FlightAware Approximate
08:44 -14.2239 141.0336 322° Northwest 36,000  Level Aus ATC (Calculated)
08:44 -14.1217 140.9757 322° Northwest 36,000 -60 Level Aus ATC (Calculated)
08:46 -13.9941 140.9035 331° Northwest  Level FlightAware Approximate
08:47 -13.8892 140.8442 331° Northwest  Level FlightAware Approximate
08:47 -13.8742 140.8357 322° Northwest 36,000  Level Aus ATC (Calculated)
08:49 -13.6713 140.7212 331° Northwest  Level FlightAware Approximate
08:50 -13.5663 140.6621 331° Northwest  Level FlightAware Approximate
08:51 -13.4614 140.6030 331° Northwest  Level FlightAware Approximate
08:52 -13.3564 140.5440 331° Northwest  Level FlightAware Approximate
08:52 -13.3262 140.5270 322° Northwest 36,000  Level Aus ATC (Calculated)
08:54 -13.1214 140.4121 331° Northwest  Level FlightAware Approximate
08:55 -13.0164 140.3532 331° Northwest  Level FlightAware Approximate
08:56 -12.9114 140.2944 331° Northwest  Level FlightAware Approximate
08:57 -12.8063 140.2357 331° Northwest  Level FlightAware Approximate
08:57 -12.8064 140.2357 322° Northwest 36,000  Level Aus ATC (Calculated)
08:59 -12.6015 140.1212 331° Northwest  Level FlightAware Approximate
09:00 -12.4964 140.0626 331° Northwest  Level FlightAware Approximate
09:01 -12.3913 140.0040 331° Northwest  Level FlightAware Approximate
09:02 -12.2861 139.9455 331° Northwest  Level FlightAware Approximate
09:02 -12.2839 139.9443 322° Northwest 36,000  Level Aus ATC (Calculated)
09:04 -12.0789 139.8303 331° Northwest  Level FlightAware Approximate
09:05 -11.9737 139.7719 331° Northwest  Level FlightAware Approximate
09:06 -11.8685 139.7135 332° Northwest  Level FlightAware Approximate
09:07 -11.7634 139.6552 332° Northwest  Level FlightAware Approximate
09:07 -11.6993 139.6198 322° Northwest 36,000  Level Aus ATC (Calculated)
09:09 -11.4924 139.5053 332° Northwest  Level FlightAware Approximate
09:10 -11.3872 139.4472 332° Northwest  Level FlightAware Approximate
09:11 -11.2819 139.3891 332° Northwest  Level FlightAware Approximate
09:12 -11.1767 139.3310 332° Northwest  Level FlightAware Approximate
09:12 -11.1822 139.3340 322° Northwest 36,000  Level Aus ATC (Calculated)
09:13 -11.0715 139.2730 332° Northwest  Level FlightAware Approximate
09:13 -11.0059 139.2369 322° Northwest 36,000  Level Aus ATC (Calculated)
09:14 -10.9752 139.2200 332° Northwest  Level FlightAware Approximate
09:15 -10.8515 139.1519 332° Northwest  Level FlightAware Approximate
09:16 -10.9568 139.2098 152° Southeast  Level FlightAware Approximate
09:17 -10.8515 139.1519 332° Northwest  Level FlightAware Approximate
09:17 -10.6036 139.0163 322° Northwest 36,000  Level Aus ATC (Calculated)
09:18 -10.4435 138.9288 322° Northwest 36,000 -60 Level Aus ATC (Calculated)
09:19 -10.7950 139.1211 152° Southeast  Level FlightAware Approximate
09:20 -10.3280 138.8420 332° Northwest  Level Estimated
09:21 -10.2219 138.7858 332° Northwest  Level FlightAware Approximate
09:22 -10.1158 138.7296 332° Northwest  Level FlightAware Approximate
09:22 -10.0969 138.7395 322° Northwest 36,000  Level Aus ATC (Calculated)
09:23 -9.9422 138.6551 322° Northwest 36,000 -60 Level Aus ATC (Calculated)
09:23 -9.9422 138.6551 322° Northwest 36,000 -60 Level Aus ATC (Calculated)
09:25 -9.7770 138.5652 332° Northwest  Level FlightAware Approximate
09:26 -9.6715 138.5078 332° Northwest  Level FlightAware Approximate
09:27 -9.5661 138.4504 332° Northwest  Level FlightAware Approximate
09:27 -9.5359 138.4340 322° Northwest 36,000  Level Aus ATC (Calculated)
09:28 -9.4606 138.3931 332° Northwest  Level FlightAware Approximate
09:28 -9.4512 138.3880 322° Northwest 36,000  Level Aus ATC (Calculated)
09:29 -9.3425 138.3290 332° Northwest  Level FlightAware Approximate
09:30 -9.2842 138.2974 332° Northwest  Level FlightAware Approximate
09:31 -9.1787 138.2401 332° Northwest  Level FlightAware Approximate
09:32 -9.0732 138.1830 332° Northwest  Level FlightAware Approximate
09:33 -8.9677 138.1258 332° Northwest  Level FlightAware Approximate
09:34 -8.8622 138.0687 332° Northwest  Level FlightAware Approximate
09:35 -8.7566 138.0117 332° Northwest  Level FlightAware Approximate
09:36 -8.8622 138.0687 152° Southeast  Level FlightAware Approximate
09:37 -8.7566 138.0117 332° Northwest  Level FlightAware Approximate
09:38 -8.8509 138.0609 323° Northwest  Level FlightAware Approximate
09:39 -8.7559 137.9873 323° Northwest  Level FlightAware Approximate
09:40 -8.6608 137.9138 323° Northwest  Level FlightAware Approximate
09:41 -8.5658 137.8403 323° Northwest  Level FlightAware Approximate
09:42 -8.4707 137.7668 323° Northwest  Level FlightAware Approximate
09:43 -8.3756 137.6933 323° Northwest  Level FlightAware Approximate
09:44 -8.2805 137.6199 323° Northwest  Level FlightAware Approximate
09:45 -8.1854 137.5466 323° Northwest  Level FlightAware Approximate
09:46 -8.0903 137.4732 323° Northwest  Level FlightAware Approximate
09:47 -7.9952 137.3999 323° Northwest  Level FlightAware Approximate
09:48 -7.9000 137.3267 323° Northwest  Level FlightAware Approximate
09:49 -7.8049 137.2534 323° Northwest  Level FlightAware Approximate
09:50 -7.7097 137.1802 323° Northwest  Level FlightAware Approximate
09:51 -7.6145 137.1071 323° Northwest  Level FlightAware Approximate
09:52 -7.5193 137.0339 323° Northwest  Level FlightAware Approximate
09:53 -7.4241 136.9608 323° Northwest  Level FlightAware Approximate
09:54 -7.3289 136.8878 323° Northwest  Level FlightAware Approximate
09:55 -7.2336 136.8147 323° Northwest  Level FlightAware Approximate
09:56 -7.1384 136.7417 323° Northwest  Level FlightAware Approximate
09:57 -7.0431 136.6687 323° Northwest  Level FlightAware Approximate
09:58 -6.9478 136.5958 323° Northwest  Level FlightAware Approximate
09:59 -6.8526 136.5229 323° Northwest  Level FlightAware Approximate
10:00 -6.7573 136.4500 323° Northwest  Level FlightAware Approximate
10:01 -6.6620 136.3771 323° Northwest  Level FlightAware Approximate
10:02 -6.5667 136.3043 323° Northwest  Level FlightAware Approximate
10:03 -6.4713 136.2315 323° Northwest  Level FlightAware Approximate
10:04 -6.3760 136.1587 323° Northwest  Level FlightAware Approximate
10:05 -6.2807 136.0860 323° Northwest  Level FlightAware Approximate
10:06 -6.1853 136.0132 323° Northwest  Level FlightAware Approximate
10:07 -6.0900 135.9405 323° Northwest  Level FlightAware Approximate
10:08 -5.9946 135.8679 323° Northwest  Level FlightAware Approximate
10:09 -5.8992 135.7952 323° Northwest  Level FlightAware Approximate
10:10 -5.8038 135.7226 323° Northwest  Level FlightAware Approximate
10:11 -5.7084 135.6500 323° Northwest  Level FlightAware Approximate
10:12 -5.6130 135.5774 323° Northwest  Level FlightAware Approximate
10:13 -5.5176 135.5049 323° Northwest  Level FlightAware Approximate
10:14 -5.4222 135.4323 323° Northwest  Level FlightAware Approximate
10:15 -5.3267 135.3598 323° Northwest  Level FlightAware Approximate
10:16 -5.2313 135.2874 323° Northwest  Level FlightAware Approximate
10:17 -5.1358 135.2149 323° Northwest  Level FlightAware Approximate
10:18 -5.0403 135.1425 323° Northwest  Level FlightAware Approximate
10:19 -4.9449 135.0701 323° Northwest  Level FlightAware Approximate
10:20 -4.8494 134.9977 323° Northwest  Level FlightAware Approximate
10:21 -4.7539 134.9253 323° Northwest  Level FlightAware Approximate
10:22 -4.6584 134.8530 323° Northwest  Level FlightAware Approximate
10:23 -4.5629 134.7806 323° Northwest  Level FlightAware Approximate
10:24 -4.4674 134.7083 323° Northwest  Level FlightAware Approximate
10:25 -4.3719 134.6360 323° Northwest  Level FlightAware Approximate
10:26 -4.2764 134.5637 323° Northwest  Level FlightAware Approximate
10:27 -4.1808 134.4915 323° Northwest  Level FlightAware Approximate
10:28 -4.0853 134.4192 323° Northwest  Level FlightAware Approximate
10:29 -3.9898 134.3470 323° Northwest  Level FlightAware Approximate
10:30 -3.8942 134.2748 323° Northwest  Level FlightAware Approximate
10:31 -3.7987 134.2026 323° Northwest  Level FlightAware Approximate
10:32 -3.7031 134.1304 323° Northwest  Level FlightAware Approximate
10:33 -3.6075 134.0583 323° Northwest  Level FlightAware Approximate
10:34 -3.5120 133.9861 323° Northwest  Level FlightAware Approximate
10:35 -3.4164 133.9140 323° Northwest  Level FlightAware Approximate
10:36 -3.3208 133.8419 323° Northwest  Level FlightAware Approximate
10:37 -3.2252 133.7698 323° Northwest  Level FlightAware Approximate
10:38 -3.1296 133.6977 323° Northwest  Level FlightAware Approximate
10:39 -3.0340 133.6256 323° Northwest  Level FlightAware Approximate
10:40 -2.9398 133.5517 321° Northwest  Level FlightAware Approximate
10:41 -2.8465 133.4767 321° Northwest  Level FlightAware Approximate
10:42 -2.7531 133.4017 321° Northwest  Level FlightAware Approximate
10:43 -2.6598 133.3268 321° Northwest  Level FlightAware Approximate
10:44 -2.5664 133.2519 321° Northwest  Level FlightAware Approximate
10:45 -2.4731 133.1769 321° Northwest  Level FlightAware Approximate
10:46 -2.3797 133.1020 321° Northwest  Level FlightAware Approximate
10:47 -2.2864 133.0271 321° Northwest  Level FlightAware Approximate
10:48 -2.1930 132.9522 321° Northwest  Level FlightAware Approximate
10:49 -2.0996 132.8774 321° Northwest  Level FlightAware Approximate
10:50 -2.0062 132.8025 321° Northwest  Level FlightAware Approximate
10:51 -1.9128 132.7276 321° Northwest  Level FlightAware Approximate
10:52 -1.8195 132.6528 321° Northwest  Level FlightAware Approximate
10:53 -1.7261 132.5779 321° Northwest  Level FlightAware Approximate
10:54 -1.6327 132.5031 321° Northwest  Level FlightAware Approximate
10:55 -1.5393 132.4282 321° Northwest  Level FlightAware Approximate
10:56 -1.4459 132.3534 321° Northwest  Level FlightAware Approximate
10:57 -1.3525 132.2786 321° Northwest  Level FlightAware Approximate
10:58 -1.2591 132.2038 321° Northwest  Level FlightAware Approximate
10:59 -1.1657 132.1289 321° Northwest  Level FlightAware Approximate
11:00 -1.0723 132.0541 321° Northwest  Level FlightAware Approximate
11:01 -0.9789 131.9793 321° Northwest  Level FlightAware Approximate
11:02 -0.8854 131.9045 321° Northwest  Level FlightAware Approximate
11:03 -0.7920 131.8297 321° Northwest  Level FlightAware Approximate
11:04 -0.6986 131.7549 321° Northwest  Level FlightAware Approximate
11:05 -0.6052 131.6801 321° Northwest  Level FlightAware Approximate
11:06 -0.5118 131.6054 321° Northwest  Level FlightAware Approximate
11:07 -0.4184 131.5306 321° Northwest  Level FlightAware Approximate
11:08 -0.3250 131.4558 321° Northwest  Level FlightAware Approximate
11:09 -0.2315 131.3810 321° Northwest  Level FlightAware Approximate
11:10 -0.1381 131.3062 321° Northwest  Level FlightAware Approximate
11:11 -0.0447 131.2315 321° Northwest  Level FlightAware Approximate
11:12 0.0487 131.1567 321° Northwest  Level FlightAware Approximate
11:13 0.1421 131.0819 321° Northwest  Level FlightAware Approximate
11:14 0.2356 131.0071 321° Northwest  Level FlightAware Approximate
11:15 0.3290 130.9323 321° Northwest  Level FlightAware Approximate
11:16 0.4224 130.8576 321° Northwest  Level FlightAware Approximate
11:17 0.5158 130.7828 321° Northwest  Level FlightAware Approximate
11:18 0.6092 130.7080 321° Northwest  Level FlightAware Approximate
11:19 0.7027 130.6332 321° Northwest  Level FlightAware Approximate
11:20 0.7961 130.5584 321° Northwest  Level FlightAware Approximate
11:21 0.8895 130.4836 321° Northwest  Level FlightAware Approximate
11:22 0.9829 130.4088 321° Northwest  Level FlightAware Approximate
11:23 1.0763 130.3340 321° Northwest  Level FlightAware Approximate
11:24 1.1697 130.2592 321° Northwest  Level FlightAware Approximate
11:25 1.2631 130.1844 321° Northwest  Level FlightAware Approximate
11:26 1.3565 130.1096 321° Northwest  Level FlightAware Approximate
11:27 1.4499 130.0347 321° Northwest  Level FlightAware Approximate
11:28 1.5433 129.9599 321° Northwest  Level FlightAware Approximate
11:29 1.6367 129.8851 321° Northwest  Level FlightAware Approximate
11:30 1.7301 129.8102 321° Northwest  Level FlightAware Approximate
11:31 1.8235 129.7354 321° Northwest  Level FlightAware Approximate
11:32 1.9168 129.6605 321° Northwest  Level FlightAware Approximate
11:33 2.0114 129.5871 323° Northwest  Level FlightAware Approximate
11:34 2.1069 129.5150 323° Northwest  Level FlightAware Approximate
11:35 2.2025 129.4429 323° Northwest  Level FlightAware Approximate
11:36 2.2980 129.3708 323° Northwest  Level FlightAware Approximate
11:37 2.3935 129.2987 323° Northwest  Level FlightAware Approximate
11:38 2.4890 129.2265 323° Northwest  Level FlightAware Approximate
11:39 2.5846 129.1544 323° Northwest  Level FlightAware Approximate
11:40 2.6801 129.0822 323° Northwest  Level FlightAware Approximate
11:41 2.7756 129.0101 323° Northwest  Level FlightAware Approximate
11:42 2.8711 128.9379 323° Northwest  Level FlightAware Approximate
11:43 2.9666 128.8657 323° Northwest  Level FlightAware Approximate
11:44 3.0621 128.7935 323° Northwest  Level FlightAware Approximate
11:45 3.1576 128.7213 323° Northwest  Level FlightAware Approximate
11:46 3.2531 128.6490 323° Northwest  Level FlightAware Approximate
11:47 3.3485 128.5768 323° Northwest  Level FlightAware Approximate
11:48 3.4440 128.5045 323° Northwest  Level FlightAware Approximate
11:49 3.5395 128.4323 323° Northwest  Level FlightAware Approximate
11:50 3.6349 128.3600 323° Northwest  Level FlightAware Approximate
11:51 3.7304 128.2876 323° Northwest  Level FlightAware Approximate
11:52 3.8259 128.2153 323° Northwest  Level FlightAware Approximate
11:53 3.9213 128.1430 323° Northwest  Level FlightAware Approximate
11:54 4.0166 128.0705 322° Northwest  Level FlightAware Approximate
11:55 4.1115 127.9974 322° Northwest  Level FlightAware Approximate
11:56 4.2063 127.9242 322° Northwest  Level FlightAware Approximate
11:57 4.3012 127.8510 322° Northwest  Level FlightAware Approximate
11:58 4.3960 127.7778 322° Northwest  Level FlightAware Approximate
11:59 4.4908 127.7046 322° Northwest  Level FlightAware Approximate
12:00 4.5856 127.6314 322° Northwest  Level FlightAware Approximate
12:01 4.6804 127.5581 322° Northwest  Level FlightAware Approximate
12:02 4.7752 127.4849 322° Northwest  Level FlightAware Approximate
12:03 4.8700 127.4116 322° Northwest  Level FlightAware Approximate
12:04 4.9648 127.3383 322° Northwest  Level FlightAware Approximate
12:05 5.0596 127.2649 322° Northwest  Level FlightAware Approximate
12:06 5.1543 127.1916 322° Northwest  Level FlightAware Approximate
12:07 5.2491 127.1182 322° Northwest  Level FlightAware Approximate
12:08 5.3438 127.0448 322° Northwest  Level FlightAware Approximate
12:09 5.4386 126.9714 322° Northwest  Level FlightAware Approximate
12:10 5.5333 126.8979 322° Northwest  Level FlightAware Approximate
12:11 5.6280 126.8244 322° Northwest  Level FlightAware Approximate
12:12 5.7227 126.7510 322° Northwest  Level FlightAware Approximate
12:13 5.8174 126.6774 322° Northwest  Level FlightAware Approximate
12:14 5.9121 126.6039 322° Northwest  Level FlightAware Approximate
12:15 6.0068 126.5303 322° Northwest  Level FlightAware Approximate
12:16 6.1015 126.4567 322° Northwest  Level FlightAware Approximate
12:17 6.1961 126.3831 322° Northwest  Level FlightAware Approximate
12:18 6.2908 126.3095 322° Northwest  Level FlightAware Approximate
12:19 6.3854 126.2358 322° Northwest  Level FlightAware Approximate
12:20 6.4801 126.1621 322° Northwest  Level FlightAware Approximate
12:21 6.5747 126.0884 322° Northwest  Level FlightAware Approximate
12:22 6.6693 126.0146 322° Northwest  Level FlightAware Approximate
12:23 6.7639 125.9408 322° Northwest  Level FlightAware Approximate
12:24 6.8585 125.8670 322° Northwest  Level FlightAware Approximate
12:25 6.9531 125.7932 322° Northwest  Level FlightAware Approximate
12:26 7.0477 125.7193 322° Northwest  Level FlightAware Approximate
12:27 7.1421 125.6452 321° Northwest  Level FlightAware Approximate
12:28 7.2353 125.5696 321° Northwest  Level FlightAware Approximate
12:29 7.3285 125.4940 321° Northwest  Level FlightAware Approximate
12:30 7.4218 125.4184 321° Northwest  Level FlightAware Approximate
12:31 7.5150 125.3427 321° Northwest  Level FlightAware Approximate
12:32 7.6082 125.2670 321° Northwest  Level FlightAware Approximate
12:33 7.7013 125.1912 321° Northwest  Level FlightAware Approximate
12:34 7.7945 125.1154 321° Northwest  Level FlightAware Approximate
12:35 7.8877 125.0396 321° Northwest  Level FlightAware Approximate
12:36 7.9808 124.9637 321° Northwest  Level FlightAware Approximate
12:37 8.0740 124.8879 321° Northwest  Level FlightAware Approximate
12:38 8.1671 124.8120 321° Northwest  Level FlightAware Approximate
12:39 8.2602 124.7361 321° Northwest  Level FlightAware Approximate
12:40 8.3533 124.6601 321° Northwest  Level FlightAware Approximate
12:41 8.4456 124.5832 319° Northwest  Level FlightAware Approximate
12:42 8.5365 124.5044 319° Northwest  Level FlightAware Approximate
12:43 8.6272 124.4256 319° Northwest  Level FlightAware Approximate
12:44 8.7180 124.3467 319° Northwest  Level FlightAware Approximate
12:45 8.8088 124.2678 319° Northwest  Level FlightAware Approximate
12:46 8.8996 124.1889 319° Northwest  Level FlightAware Approximate
12:47 8.9903 124.1099 319° Northwest  Level FlightAware Approximate
12:48 9.0810 124.0309 319° Northwest  Level FlightAware Approximate
12:49 9.1717 123.9519 319° Northwest  Level FlightAware Approximate
12:50 9.2624 123.8728 319° Northwest  Level FlightAware Approximate
12:51 9.3531 123.7937 319° Northwest  Level FlightAware Approximate
12:52 9.4438 123.7145 319° Northwest  Level FlightAware Approximate
12:53 9.5344 123.6353 319° Northwest  Level FlightAware Approximate
12:54 9.6250 123.5561 319° Northwest  Level FlightAware Approximate
12:55 9.7157 123.4768 319° Northwest  Level FlightAware Approximate
12:56 9.8063 123.3975 319° Northwest  Level FlightAware Approximate
12:57 9.8968 123.3181 319° Northwest  Level FlightAware Approximate
12:58 9.9874 123.2387 319° Northwest  Level FlightAware Approximate
12:59 10.0779 123.1592 319° Northwest  Level FlightAware Approximate
13:00 10.1685 123.0798 319° Northwest  Level FlightAware Approximate
13:01 10.2590 123.0002 319° Northwest  Level FlightAware Approximate
13:02 10.3495 122.9206 319° Northwest  Level FlightAware Approximate
13:03 10.4399 122.8410 319° Northwest  Level FlightAware Approximate
13:04 10.5304 122.7613 319° Northwest  Level FlightAware Approximate
13:05 10.6208 122.6816 319° Northwest  Level FlightAware Approximate
13:06 10.7112 122.6018 319° Northwest  Level FlightAware Approximate
13:07 10.8016 122.5220 319° Northwest  Level FlightAware Approximate
13:08 10.8903 122.4403 317° Northwest  Level FlightAware Approximate
13:09 10.9781 122.3575 317° Northwest  Level FlightAware Approximate
13:10 11.0659 122.2746 317° Northwest  Level FlightAware Approximate
13:11 11.1536 122.1917 317° Northwest  Level FlightAware Approximate
13:12 11.2413 122.1087 317° Northwest  Level FlightAware Approximate
13:13 11.3290 122.0256 317° Northwest  Level FlightAware Approximate
13:14 11.4166 121.9425 317° Northwest  Level FlightAware Approximate
13:15 11.5042 121.8594 317° Northwest  Level FlightAware Approximate
13:16 11.5919 121.7762 317° Northwest  Level FlightAware Approximate
13:17 11.6794 121.6929 317° Northwest  Level FlightAware Approximate
13:18 11.7670 121.6096 317° Northwest  Level FlightAware Approximate
13:19 11.8545 121.5263 317° Northwest  Level FlightAware Approximate
13:20 11.9420 121.4429 317° Northwest  Level FlightAware Approximate
13:21 12.0295 121.3594 317° Northwest  Level FlightAware Approximate
13:22 12.1170 121.2759 317° Northwest  Level FlightAware Approximate
13:23 12.2044 121.1923 317° Northwest  Level FlightAware Approximate
13:24 12.2918 121.1087 317° Northwest  Level FlightAware Approximate
13:25 12.3824 121.0293 329° Northwest  Level FlightAware Approximate
13:26 12.4846 120.9657 329° Northwest  Level FlightAware Approximate
13:27 12.5869 120.9020 329° Northwest  Level FlightAware Approximate
13:28 12.6891 120.8382 329° Northwest  Level FlightAware Approximate
13:29 12.7913 120.7744 329° Northwest  Level FlightAware Approximate
13:30 12.8935 120.7105 329° Northwest  Level FlightAware Approximate
13:31 12.9957 120.6466 329° Northwest  Level FlightAware Approximate
13:32 13.0978 120.5827 329° Northwest  Level FlightAware Approximate
13:33 13.2000 120.5186 329° Northwest  Level FlightAware Approximate
13:34 13.3021 120.4546 329° Northwest  Level FlightAware Approximate
13:35 13.4042 120.3904 329° Northwest  Level FlightAware Approximate
13:36 13.5063 120.3263 329° Northwest  Level FlightAware Approximate
13:37 13.6083 120.2620 329° Northwest  Level FlightAware Approximate
13:38 13.7104 120.1977 329° Northwest  Level FlightAware Approximate
13:39 13.8124 120.1334 329° Northwest  Level FlightAware Approximate
13:40 13.9027 120.0540 313° West  Level FlightAware Approximate
13:41 13.9848 119.9643 313° West  Level FlightAware Approximate
13:42 14.0669 119.8746 313° West  Level FlightAware Approximate
13:43 14.1489 119.7848 313° West  Level FlightAware Approximate
13:44 14.2309 119.6949 313° West  Level FlightAware Approximate
13:45 14.3128 119.6049 313° West  Level FlightAware Approximate
13:46 14.3948 119.5149 313° West  Level FlightAware Approximate
13:47 14.4767 119.4248 313° West  Level FlightAware Approximate
13:48 14.5585 119.3346 313° West  Level FlightAware Approximate
13:49 14.6404 119.2444 313° West  Level FlightAware Approximate
13:50 14.7221 119.1541 313° West  Level FlightAware Approximate
13:51 14.8039 119.0638 313° West  Level FlightAware Approximate
13:52 14.8856 118.9733 313° West  Level FlightAware Approximate
13:53 14.9673 118.8828 313° West  Level FlightAware Approximate
13:54 15.0490 118.7923 313° West  Level FlightAware Approximate
13:55 15.1306 118.7016 313° West  Level FlightAware Approximate
13:56 15.2121 118.6109 313° West  Level FlightAware Approximate
13:57 15.2937 118.5201 313° West  Level FlightAware Approximate
13:58 15.3752 118.4293 313° West  Level FlightAware Approximate
13:59 15.4566 118.3383 313° West  Level FlightAware Approximate
14:00 15.5381 118.2474 313° West  Level FlightAware Approximate
14:01 15.6195 118.1563 313° West  Level FlightAware Approximate
14:02 15.7008 118.0652 313° West  Level FlightAware Approximate
14:03 15.7821 117.9740 313° West  Level FlightAware Approximate
14:04 15.8634 117.8827 313° West  Level FlightAware Approximate
14:05 15.9447 117.7913 313° West  Level FlightAware Approximate
14:06 16.0259 117.6999 313° West  Level FlightAware Approximate
14:07 16.1070 117.6084 313° West  Level FlightAware Approximate
14:08 16.1881 117.5168 313° West  Level FlightAware Approximate
14:09 16.2692 117.4252 313° West  Level FlightAware Approximate
14:10 16.3503 117.3334 313° West  Level FlightAware Approximate
14:11 16.4313 117.2416 313° West  Level FlightAware Approximate
14:12 16.5282 117.1716 333° Northwest  Level FlightAware Approximate
14:13 16.6348 117.1149 333° Northwest  Level FlightAware Approximate
14:14 16.7413 117.0581 333° Northwest  Level FlightAware Approximate
14:15 16.8479 117.0012 333° Northwest  Level FlightAware Approximate
14:16 16.9545 116.9443 333° Northwest  Level FlightAware Approximate
14:17 17.0610 116.8873 333° Northwest  Level FlightAware Approximate
14:18 17.1675 116.8303 333° Northwest  Level FlightAware Approximate
14:18 20.9270 114.0580 333° Northwest 457 526 20,700  Level FlightAware
14:18 20.9710 113.9920 306° West 454 522 20,300 -660 Descending FlightAware
14:19 21.0250 113.9150 307° West 448 516 19,900 -300 Descending FlightAware
14:20 21.0730 113.8430 306° West 448 516 19,900  Level FlightAware
14:20 21.1050 113.7970 307° West 448 516 19,900  Level FlightAware
14:21 21.1460 113.7360 306° West 448 516 19,900  Level FlightAware
14:21 21.1770 113.6900 306° West 448 516 19,900  Level FlightAware
14:22 21.2180 113.6290 306° West 448 516 19,900  Level FlightAware
14:23 21.2700 113.5530 306° West 448 516 19,900 -840 Level FlightAware
14:25 21.4822 113.5929 10° North  Level Estimated
14:26 21.6000 113.6151 10° North  Level Estimated
14:27 21.7179 113.6373 10° North  Level Estimated
14:28 21.8358 113.6596 10° North  Level Estimated
14:29 21.9536 113.6819 10° North  Level Estimated
14:30 22.0715 113.7042 10° North  Level Estimated
14:31 22.1893 113.7266 10° North  Level Estimated
14:32 22.3072 113.7490 10° North  Level Estimated
14:33 22.4250 113.7714 10° North  Level Estimated
14:34 22.5429 113.7939 10° North  Level Estimated
14:34 22.3540 113.3730 10° North 360 414 10,400  Level FlightAware
14:35 22.4230 113.4010 21° North 327 376 9,700 -1,020 Descending FlightAware
14:35 22.4430 113.4100 23° Northeast 319 367 9,400 -960 Descending FlightAware
14:35 22.4820 113.4260 21° North 301 346 9,000 -960 Descending FlightAware
14:36 22.5030 113.4350 22° Northeast 294 338 8,700 -1,200 Descending FlightAware
14:36 22.5220 113.4430 21° North 293 337 8,400 -1,380 Descending FlightAware
14:36 22.5470 113.4530 20° North 290 334 7,900 -1,500 Descending FlightAware
14:37 22.5790 113.4670 22° Northeast 287 330 7,300 -1,380 Descending FlightAware
14:37 22.6040 113.4770 20° North 284 327 6,900 -1,380 Descending FlightAware
14:37 22.6330 113.4890 21° North 281 323 6,300 -1,440 Descending FlightAware
14:38 22.6770 113.5070 21° North 277 319 5,500 -1,140 Descending FlightAware
14:38 22.7050 113.5190 22° Northeast 265 305 5,200 -600 Descending FlightAware
14:39 22.7340 113.5310 21° North 252 290 5,000 -600 Descending FlightAware
14:39 22.7490 113.5380 23° Northeast 244 281 4,800 -840 Descending FlightAware
14:40 22.7800 113.5510 21° North 230 265 4,400 -720 Descending FlightAware
14:40 22.7940 113.5570 22° Northeast 224 258 4,300 -720 Descending FlightAware
14:40 22.8280 113.5720 22° Northeast 215 247 3,800 -960 Descending FlightAware
14:41 22.8380 113.5840 48° Northeast 211 243 3,500 -960 Descending FlightAware
14:41 22.8520 113.6160 65° Northeast 204 235 3,000 -840 Descending FlightAware
14:41 22.8590 113.6320 65° Northeast 203 234 2,800 -900 Descending FlightAware
14:42 22.8660 113.6540 71° East 201 231 2,400 -600 Descending FlightAware
14:42 22.8540 113.6750 122° Southeast 195 224 2,300 -120 Descending FlightAware
14:43 22.8350 113.6860 152° Southeast 190 219 2,300  Level FlightAware
14:43 22.8200 113.6940 154° Southeast 191 220 2,300  Level FlightAware
14:43 22.7990 113.7050 154° Southeast 191 220 2,300  Level FlightAware
14:44 22.7720 113.7200 153° Southeast 170 196 2,300  Level FlightAware
14:44 22.7610 113.7260 153° Southeast 160 184 2,300 -660 Level FlightAware
14:45 22.7360 113.7400 153° Southeast 152 175 1,700 -780 Descending FlightAware
14:45 22.7210 113.7480 154° Southeast 137 158 1,500 -660 Descending FlightAware
14:46 22.7040 113.7580 152° Southeast 137 158 1,100 -780 Descending FlightAware
14:46 22.6890 113.7660 154° Southeast 139 160 800 -660 Descending FlightAware
14:47 22.6720 113.7750 154° Southeast 138 159 500 -660 Descending FlightAware
14:47 22.6580 113.7830 152° Southeast 138 159 200 -720 Descending FlightAware
14:48 22.6470 113.7890 153° Southeast 120 138 -600 Descending FlightAware